sensor_id;sensor_type;location;lat;lon;timestamp;P1;durP1;ratioP1;P2;durP2;ratioP2
21591;SDS011;10958;50.892;3.992;2023-01-15T00:01:45;8.45;;;1.73;;
21591;SDS011;10958;50.892;3.992;2023-01-15T00:04:11;6.47;;;1.52;;
21591;SDS011;10958;50.892;3.992;2023-01-15T00:06:38;8.77;;;1.33;;
21591;SDS011;10958;50.892;3.992;2023-01-15T00:09:05;7.63;;;1.50;;
21591;SDS011;10958;50.892;3.992;2023-01-15T00:11:35;11.65;;;1.65;;
21591;SDS011;10958;50.892;3.992;2023-01-15T00:14:01;9.90;;;1.60;;
21591;SDS011;10958;50.892;3.992;2023-01-15T00:16:26;5.68;;;1.60;;
21591;SDS011;10958;50.892;3.992;2023-01-15T00:18:56;7.28;;;1.58;;
21591;SDS011;10958;50.892;3.992;2023-01-15T00:21:24;15.45;;;2.17;;
21591;SDS011;10958;50.892;3.992;2023-01-15T00:23:50;7.80;;;1.35;;
21591;SDS011;10958;50.892;3.992;2023-01-15T00:26:35;7.07;;;1.23;;
21591;SDS011;10958;50.892;3.992;2023-01-15T00:29:21;5.78;;;1.45;;
21591;SDS011;10958;50.892;3.992;2023-01-15T00:31:52;6.75;;;1.65;;
21591;SDS011;10958;50.892;3.992;2023-01-15T00:34:30;7.75;;;1.42;;
21591;SDS011;10958;50.892;3.992;2023-01-15T00:36:57;8.77;;;1.80;;
21591;SDS011;10958;50.892;3.992;2023-01-15T00:39:23;9.95;;;1.30;;
21591;SDS011;10958;50.892;3.992;2023-01-15T00:41:50;8.77;;;1.40;;
21591;SDS011;10958;50.892;3.992;2023-01-15T00:44:17;8.90;;;1.67;;
21591;SDS011;10958;50.892;3.992;2023-01-15T00:46:44;8.10;;;1.38;;
21591;SDS011;10958;50.892;3.992;2023-01-15T00:49:10;10.65;;;1.73;;
21591;SDS011;10958;50.892;3.992;2023-01-15T00:51:36;10.05;;;1.65;;
21591;SDS011;10958;50.892;3.992;2023-01-15T00:54:02;9.75;;;1.60;;
21591;SDS011;10958;50.892;3.992;2023-01-15T00:56:28;14.73;;;1.75;;
21591;SDS011;10958;50.892;3.992;2023-01-15T00:58:54;12.73;;;1.70;;
21591;SDS011;10958;50.892;3.992;2023-01-15T01:01:20;10.57;;;1.77;;
21591;SDS011;10958;50.892;3.992;2023-01-15T01:03:48;13.18;;;1.77;;
21591;SDS011;10958;50.892;3.992;2023-01-15T01:06:16;9.85;;;1.50;;
21591;SDS011;10958;50.892;3.992;2023-01-15T01:08:44;8.88;;;1.40;;
21591;SDS011;10958;50.892;3.992;2023-01-15T01:11:10;7.28;;;1.35;;
21591;SDS011;10958;50.892;3.992;2023-01-15T01:13:38;8.90;;;1.17;;
21591;SDS011;10958;50.892;3.992;2023-01-15T01:16:17;11.75;;;1.65;;
21591;SDS011;10958;50.892;3.992;2023-01-15T01:18:45;13.18;;;1.90;;
21591;SDS011;10958;50.892;3.992;2023-01-15T01:21:10;9.07;;;1.88;;
21591;SDS011;10958;50.892;3.992;2023-01-15T01:23:36;8.98;;;1.50;;
21591;SDS011;10958;50.892;3.992;2023-01-15T01:26:02;8.52;;;1.17;;
21591;SDS011;10958;50.892;3.992;2023-01-15T01:28:27;11.05;;;2.00;;
21591;SDS011;10958;50.892;3.992;2023-01-15T01:30:53;9.95;;;1.60;;
21591;SDS011;10958;50.892;3.992;2023-01-15T01:33:19;10.30;;;1.60;;
21591;SDS011;10958;50.892;3.992;2023-01-15T01:35:49;8.05;;;1.38;;
21591;SDS011;10958;50.892;3.992;2023-01-15T01:40:40;7.32;;;1.55;;
21591;SDS011;10958;50.892;3.992;2023-01-15T01:43:16;12.05;;;1.48;;
21591;SDS011;10958;50.892;3.992;2023-01-15T01:45:46;9.75;;;1.65;;
21591;SDS011;10958;50.892;3.992;2023-01-15T01:48:12;7.35;;;1.27;;
21591;SDS011;10958;50.892;3.992;2023-01-15T01:50:43;8.90;;;1.67;;
21591;SDS011;10958;50.892;3.992;2023-01-15T01:53:12;10.73;;;1.23;;
21591;SDS011;10958;50.892;3.992;2023-01-15T01:55:41;9.07;;;1.67;;
21591;SDS011;10958;50.892;3.992;2023-01-15T01:58:08;8.30;;;1.60;;
21591;SDS011;10958;50.892;3.992;2023-01-15T02:00:37;12.27;;;1.50;;
21591;SDS011;10958;50.892;3.992;2023-01-15T02:03:05;7.95;;;1.45;;
21591;SDS011;10958;50.892;3.992;2023-01-15T02:05:34;8.52;;;1.73;;
21591;SDS011;10958;50.892;3.992;2023-01-15T02:08:04;17.17;;;2.08;;
21591;SDS011;10958;50.892;3.992;2023-01-15T02:13:04;12.52;;;1.77;;
21591;SDS011;10958;50.892;3.992;2023-01-15T02:15:39;8.35;;;1.48;;
21591;SDS011;10958;50.892;3.992;2023-01-15T02:18:11;8.77;;;1.55;;
21591;SDS011;10958;50.892;3.992;2023-01-15T02:20:56;9.05;;;1.40;;
21591;SDS011;10958;50.892;3.992;2023-01-15T02:29:03;9.07;;;1.35;;
21591;SDS011;10958;50.892;3.992;2023-01-15T02:31:38;13.05;;;1.50;;
21591;SDS011;10958;50.892;3.992;2023-01-15T02:36:43;10.60;;;1.98;;
21591;SDS011;10958;50.892;3.992;2023-01-15T02:39:14;8.48;;;1.92;;
21591;SDS011;10958;50.892;3.992;2023-01-15T02:41:43;8.68;;;1.48;;
21591;SDS011;10958;50.892;3.992;2023-01-15T02:44:13;7.45;;;1.50;;
21591;SDS011;10958;50.892;3.992;2023-01-15T02:46:41;8.63;;;2.42;;
21591;SDS011;10958;50.892;3.992;2023-01-15T02:49:12;7.88;;;1.50;;
21591;SDS011;10958;50.892;3.992;2023-01-15T02:51:48;11.10;;;2.08;;
21591;SDS011;10958;50.892;3.992;2023-01-15T02:54:22;10.02;;;1.90;;
21591;SDS011;10958;50.892;3.992;2023-01-15T02:56:54;11.98;;;2.15;;
21591;SDS011;10958;50.892;3.992;2023-01-15T02:59:25;7.50;;;1.60;;
21591;SDS011;10958;50.892;3.992;2023-01-15T03:01:58;10.23;;;1.90;;
21591;SDS011;10958;50.892;3.992;2023-01-15T03:04:31;9.23;;;1.50;;
21591;SDS011;10958;50.892;3.992;2023-01-15T03:09:38;9.77;;;1.88;;
21591;SDS011;10958;50.892;3.992;2023-01-15T03:12:14;11.13;;;1.73;;
21591;SDS011;10958;50.892;3.992;2023-01-15T03:17:27;9.20;;;2.13;;
21591;SDS011;10958;50.892;3.992;2023-01-15T03:22:43;7.07;;;1.33;;
21591;SDS011;10958;50.892;3.992;2023-01-15T03:25:11;10.32;;;1.77;;
21591;SDS011;10958;50.892;3.992;2023-01-15T03:27:41;10.52;;;1.77;;
21591;SDS011;10958;50.892;3.992;2023-01-15T03:30:11;6.57;;;1.17;;
21591;SDS011;10958;50.892;3.992;2023-01-15T03:32:42;10.95;;;1.40;;
21591;SDS011;10958;50.892;3.992;2023-01-15T03:35:38;7.03;;;1.30;;
21591;SDS011;10958;50.892;3.992;2023-01-15T03:38:36;11.30;;;1.60;;
21591;SDS011;10958;50.892;3.992;2023-01-15T03:49:37;4.70;;;1.20;;
21591;SDS011;10958;50.892;3.992;2023-01-15T03:52:09;8.10;;;1.85;;
21591;SDS011;10958;50.892;3.992;2023-01-15T03:57:12;11.80;;;1.27;;
21591;SDS011;10958;50.892;3.992;2023-01-15T03:59:49;13.25;;;1.83;;
21591;SDS011;10958;50.892;3.992;2023-01-15T04:02:18;11.18;;;1.15;;
21591;SDS011;10958;50.892;3.992;2023-01-15T04:04:46;8.50;;;1.48;;
21591;SDS011;10958;50.892;3.992;2023-01-15T04:07:13;3.10;;;1.10;;
21591;SDS011;10958;50.892;3.992;2023-01-15T04:09:39;11.77;;;1.27;;
21591;SDS011;10958;50.892;3.992;2023-01-15T04:12:05;7.60;;;1.17;;
21591;SDS011;10958;50.892;3.992;2023-01-15T04:14:31;13.02;;;1.45;;
21591;SDS011;10958;50.892;3.992;2023-01-15T04:16:58;10.68;;;0.90;;
21591;SDS011;10958;50.892;3.992;2023-01-15T04:19:23;7.55;;;1.20;;
21591;SDS011;10958;50.892;3.992;2023-01-15T04:21:49;7.63;;;1.30;;
21591;SDS011;10958;50.892;3.992;2023-01-15T04:24:15;5.90;;;0.90;;
21591;SDS011;10958;50.892;3.992;2023-01-15T04:26:41;6.63;;;1.08;;
21591;SDS011;10958;50.892;3.992;2023-01-15T04:29:06;8.20;;;1.25;;
21591;SDS011;10958;50.892;3.992;2023-01-15T04:31:32;9.77;;;1.02;;
21591;SDS011;10958;50.892;3.992;2023-01-15T04:34:02;7.47;;;1.40;;
21591;SDS011;10958;50.892;3.992;2023-01-15T04:36:28;4.72;;;1.00;;
21591;SDS011;10958;50.892;3.992;2023-01-15T04:38:57;9.63;;;1.20;;
21591;SDS011;10958;50.892;3.992;2023-01-15T04:41:23;7.18;;;1.08;;
21591;SDS011;10958;50.892;3.992;2023-01-15T04:44:08;10.27;;;1.10;;
21591;SDS011;10958;50.892;3.992;2023-01-15T04:46:41;9.77;;;0.98;;
21591;SDS011;10958;50.892;3.992;2023-01-15T04:49:09;3.55;;;1.10;;
21591;SDS011;10958;50.892;3.992;2023-01-15T04:51:37;9.30;;;1.27;;
21591;SDS011;10958;50.892;3.992;2023-01-15T04:54:04;8.00;;;0.82;;
21591;SDS011;10958;50.892;3.992;2023-01-15T04:56:32;5.88;;;1.17;;
21591;SDS011;10958;50.892;3.992;2023-01-15T04:59:02;6.43;;;1.45;;
21591;SDS011;10958;50.892;3.992;2023-01-15T05:01:28;8.40;;;1.17;;
21591;SDS011;10958;50.892;3.992;2023-01-15T05:03:54;8.88;;;1.10;;
21591;SDS011;10958;50.892;3.992;2023-01-15T05:06:22;11.25;;;1.23;;
21591;SDS011;10958;50.892;3.992;2023-01-15T05:08:48;5.90;;;1.30;;
21591;SDS011;10958;50.892;3.992;2023-01-15T05:11:13;11.02;;;1.52;;
21591;SDS011;10958;50.892;3.992;2023-01-15T05:13:39;5.20;;;1.02;;
21591;SDS011;10958;50.892;3.992;2023-01-15T05:18:33;5.90;;;0.73;;
21591;SDS011;10958;50.892;3.992;2023-01-15T05:20:59;7.55;;;1.00;;
21591;SDS011;10958;50.892;3.992;2023-01-15T05:23:25;7.82;;;1.33;;
21591;SDS011;10958;50.892;3.992;2023-01-15T05:25:50;5.50;;;0.98;;
21591;SDS011;10958;50.892;3.992;2023-01-15T05:28:18;5.88;;;1.00;;
21591;SDS011;10958;50.892;3.992;2023-01-15T05:30:44;5.13;;;1.10;;
21591;SDS011;10958;50.892;3.992;2023-01-15T05:33:12;5.45;;;1.10;;
21591;SDS011;10958;50.892;3.992;2023-01-15T05:35:38;4.60;;;0.98;;
21591;SDS011;10958;50.892;3.992;2023-01-15T05:38:04;5.18;;;0.90;;
21591;SDS011;10958;50.892;3.992;2023-01-15T05:40:32;5.85;;;1.20;;
21591;SDS011;10958;50.892;3.992;2023-01-15T05:42:57;5.57;;;0.88;;
21591;SDS011;10958;50.892;3.992;2023-01-15T05:45:23;2.60;;;0.75;;
21591;SDS011;10958;50.892;3.992;2023-01-15T05:47:48;3.65;;;0.50;;
21591;SDS011;10958;50.892;3.992;2023-01-15T05:50:16;2.58;;;0.77;;
21591;SDS011;10958;50.892;3.992;2023-01-15T05:52:42;5.68;;;0.63;;
21591;SDS011;10958;50.892;3.992;2023-01-15T05:55:08;3.00;;;0.60;;
21591;SDS011;10958;50.892;3.992;2023-01-15T05:57:33;7.05;;;0.80;;
21591;SDS011;10958;50.892;3.992;2023-01-15T05:59:59;2.63;;;0.50;;
21591;SDS011;10958;50.892;3.992;2023-01-15T06:02:25;3.75;;;1.02;;
21591;SDS011;10958;50.892;3.992;2023-01-15T06:04:50;2.65;;;0.50;;
21591;SDS011;10958;50.892;3.992;2023-01-15T06:07:16;2.83;;;0.43;;
21591;SDS011;10958;50.892;3.992;2023-01-15T06:09:42;2.30;;;0.50;;
21591;SDS011;10958;50.892;3.992;2023-01-15T06:12:08;7.63;;;0.93;;
21591;SDS011;10958;50.892;3.992;2023-01-15T06:14:37;2.92;;;0.88;;
21591;SDS011;10958;50.892;3.992;2023-01-15T06:17:07;3.38;;;0.70;;
21591;SDS011;10958;50.892;3.992;2023-01-15T06:19:33;5.65;;;0.77;;
21591;SDS011;10958;50.892;3.992;2023-01-15T06:21:59;3.63;;;0.85;;
21591;SDS011;10958;50.892;3.992;2023-01-15T06:24:24;5.25;;;0.65;;
21591;SDS011;10958;50.892;3.992;2023-01-15T06:26:50;3.85;;;0.60;;
21591;SDS011;10958;50.892;3.992;2023-01-15T06:29:16;5.72;;;1.40;;
21591;SDS011;10958;50.892;3.992;2023-01-15T06:31:44;4.15;;;0.77;;
21591;SDS011;10958;50.892;3.992;2023-01-15T06:34:10;6.72;;;0.80;;
21591;SDS011;10958;50.892;3.992;2023-01-15T06:36:36;6.47;;;0.98;;
21591;SDS011;10958;50.892;3.992;2023-01-15T06:39:05;5.78;;;0.95;;
21591;SDS011;10958;50.892;3.992;2023-01-15T06:41:31;9.15;;;1.00;;
21591;SDS011;10958;50.892;3.992;2023-01-15T06:44:15;5.38;;;0.65;;
21591;SDS011;10958;50.892;3.992;2023-01-15T06:47:01;3.75;;;0.77;;
21591;SDS011;10958;50.892;3.992;2023-01-15T06:49:44;6.75;;;1.05;;
21591;SDS011;10958;50.892;3.992;2023-01-15T06:52:10;6.20;;;1.05;;
21591;SDS011;10958;50.892;3.992;2023-01-15T06:54:36;7.97;;;1.08;;
21591;SDS011;10958;50.892;3.992;2023-01-15T06:57:01;11.27;;;1.05;;
21591;SDS011;10958;50.892;3.992;2023-01-15T06:59:27;6.13;;;1.30;;
21591;SDS011;10958;50.892;3.992;2023-01-15T07:01:59;8.35;;;1.52;;
21591;SDS011;10958;50.892;3.992;2023-01-15T07:04:25;5.55;;;1.20;;
21591;SDS011;10958;50.892;3.992;2023-01-15T07:06:53;6.85;;;0.98;;
21591;SDS011;10958;50.892;3.992;2023-01-15T07:09:19;11.03;;;1.43;;
21591;SDS011;10958;50.892;3.992;2023-01-15T07:11:44;11.23;;;1.15;;
21591;SDS011;10958;50.892;3.992;2023-01-15T07:16:42;7.68;;;1.00;;
21591;SDS011;10958;50.892;3.992;2023-01-15T07:19:08;5.97;;;0.85;;
21591;SDS011;10958;50.892;3.992;2023-01-15T07:21:34;4.32;;;0.93;;
21591;SDS011;10958;50.892;3.992;2023-01-15T07:24:06;5.10;;;1.20;;
21591;SDS011;10958;50.892;3.992;2023-01-15T07:26:32;9.45;;;1.33;;
21591;SDS011;10958;50.892;3.992;2023-01-15T07:28:58;10.13;;;1.30;;
21591;SDS011;10958;50.892;3.992;2023-01-15T07:31:24;9.07;;;1.42;;
21591;SDS011;10958;50.892;3.992;2023-01-15T07:33:50;12.45;;;1.35;;
21591;SDS011;10958;50.892;3.992;2023-01-15T07:36:15;5.40;;;0.98;;
21591;SDS011;10958;50.892;3.992;2023-01-15T07:38:41;6.53;;;0.95;;
21591;SDS011;10958;50.892;3.992;2023-01-15T07:41:07;8.65;;;1.20;;
21591;SDS011;10958;50.892;3.992;2023-01-15T07:43:52;4.93;;;1.33;;
21591;SDS011;10958;50.892;3.992;2023-01-15T07:46:36;9.73;;;1.85;;
21591;SDS011;10958;50.892;3.992;2023-01-15T07:49:20;7.18;;;1.48;;
21591;SDS011;10958;50.892;3.992;2023-01-15T07:52:04;13.32;;;4.18;;
21591;SDS011;10958;50.892;3.992;2023-01-15T07:54:30;11.38;;;2.25;;
21591;SDS011;10958;50.892;3.992;2023-01-15T07:56:55;7.88;;;2.03;;
21591;SDS011;10958;50.892;3.992;2023-01-15T07:59:21;5.97;;;1.98;;
21591;SDS011;10958;50.892;3.992;2023-01-15T08:01:49;10.68;;;1.48;;
21591;SDS011;10958;50.892;3.992;2023-01-15T08:04:15;8.18;;;1.77;;
21591;SDS011;10958;50.892;3.992;2023-01-15T08:06:40;6.00;;;1.27;;
21591;SDS011;10958;50.892;3.992;2023-01-15T08:09:08;6.95;;;1.42;;
21591;SDS011;10958;50.892;3.992;2023-01-15T08:11:35;9.77;;;1.42;;
21591;SDS011;10958;50.892;3.992;2023-01-15T08:14:19;9.63;;;1.20;;
21591;SDS011;10958;50.892;3.992;2023-01-15T08:17:03;7.25;;;1.33;;
21591;SDS011;10958;50.892;3.992;2023-01-15T08:19:30;7.03;;;1.50;;
21591;SDS011;10958;50.892;3.992;2023-01-15T08:21:56;7.63;;;1.30;;
21591;SDS011;10958;50.892;3.992;2023-01-15T08:24:24;10.70;;;1.65;;
21591;SDS011;10958;50.892;3.992;2023-01-15T08:26:50;12.88;;;1.92;;
21591;SDS011;10958;50.892;3.992;2023-01-15T08:29:20;12.32;;;2.15;;
21591;SDS011;10958;50.892;3.992;2023-01-15T08:31:46;7.10;;;1.40;;
21591;SDS011;10958;50.892;3.992;2023-01-15T08:34:13;12.27;;;2.15;;
21591;SDS011;10958;50.892;3.992;2023-01-15T08:36:39;6.60;;;1.80;;
21591;SDS011;10958;50.892;3.992;2023-01-15T08:39:07;8.70;;;1.67;;
21591;SDS011;10958;50.892;3.992;2023-01-15T08:41:33;10.50;;;1.63;;
21591;SDS011;10958;50.892;3.992;2023-01-15T08:44:02;16.13;;;1.80;;
21591;SDS011;10958;50.892;3.992;2023-01-15T08:46:28;6.63;;;1.63;;
21591;SDS011;10958;50.892;3.992;2023-01-15T08:48:53;12.20;;;1.10;;
21591;SDS011;10958;50.892;3.992;2023-01-15T08:51:19;6.80;;;1.40;;
21591;SDS011;10958;50.892;3.992;2023-01-15T08:53:45;5.93;;;1.10;;
21591;SDS011;10958;50.892;3.992;2023-01-15T08:56:11;9.57;;;1.40;;
21591;SDS011;10958;50.892;3.992;2023-01-15T08:58:41;8.00;;;1.40;;
21591;SDS011;10958;50.892;3.992;2023-01-15T09:01:07;7.90;;;1.83;;
21591;SDS011;10958;50.892;3.992;2023-01-15T09:03:36;5.13;;;0.90;;
21591;SDS011;10958;50.892;3.992;2023-01-15T09:06:02;8.35;;;1.55;;
21591;SDS011;10958;50.892;3.992;2023-01-15T09:08:29;10.77;;;1.65;;
21591;SDS011;10958;50.892;3.992;2023-01-15T09:10:56;4.35;;;1.25;;
21591;SDS011;10958;50.892;3.992;2023-01-15T09:13:23;9.85;;;1.40;;
21591;SDS011;10958;50.892;3.992;2023-01-15T09:15:52;11.35;;;1.90;;
21591;SDS011;10958;50.892;3.992;2023-01-15T09:18:17;7.88;;;1.20;;
21591;SDS011;10958;50.892;3.992;2023-01-15T09:20:46;8.77;;;1.45;;
21591;SDS011;10958;50.892;3.992;2023-01-15T09:23:13;5.82;;;1.15;;
21591;SDS011;10958;50.892;3.992;2023-01-15T09:25:49;10.07;;;1.50;;
21591;SDS011;10958;50.892;3.992;2023-01-15T09:28:19;9.27;;;1.40;;
21591;SDS011;10958;50.892;3.992;2023-01-15T09:30:45;4.63;;;1.83;;
21591;SDS011;10958;50.892;3.992;2023-01-15T09:33:10;4.20;;;1.05;;
21591;SDS011;10958;50.892;3.992;2023-01-15T09:35:36;4.15;;;0.90;;
21591;SDS011;10958;50.892;3.992;2023-01-15T09:38:02;7.35;;;1.00;;
21591;SDS011;10958;50.892;3.992;2023-01-15T09:46:19;6.10;;;1.02;;
21591;SDS011;10958;50.892;3.992;2023-01-15T09:56:44;2.88;;;0.77;;
21591;SDS011;10958;50.892;3.992;2023-01-15T09:59:15;5.03;;;0.90;;
21591;SDS011;10958;50.892;3.992;2023-01-15T10:01:46;3.15;;;0.90;;
21591;SDS011;10958;50.892;3.992;2023-01-15T10:04:16;6.20;;;1.00;;
21591;SDS011;10958;50.892;3.992;2023-01-15T10:06:53;3.05;;;0.90;;
21591;SDS011;10958;50.892;3.992;2023-01-15T10:09:29;6.95;;;0.93;;
21591;SDS011;10958;50.892;3.992;2023-01-15T10:12:03;2.53;;;0.70;;
21591;SDS011;10958;50.892;3.992;2023-01-15T10:17:44;6.72;;;0.82;;
21591;SDS011;10958;50.892;3.992;2023-01-15T10:25:47;6.57;;;0.80;;
21591;SDS011;10958;50.892;3.992;2023-01-15T10:28:22;3.65;;;0.85;;
21591;SDS011;10958;50.892;3.992;2023-01-15T10:30:54;3.70;;;1.00;;
21591;SDS011;10958;50.892;3.992;2023-01-15T10:36:21;3.75;;;1.15;;
21591;SDS011;10958;50.892;3.992;2023-01-15T10:42:11;3.30;;;0.65;;
21591;SDS011;10958;50.892;3.992;2023-01-15T10:44:51;4.80;;;1.02;;
21591;SDS011;10958;50.892;3.992;2023-01-15T10:47:41;2.47;;;0.85;;
21591;SDS011;10958;50.892;3.992;2023-01-15T10:50:18;6.13;;;0.90;;
21591;SDS011;10958;50.892;3.992;2023-01-15T10:53:00;5.25;;;0.90;;
21591;SDS011;10958;50.892;3.992;2023-01-15T11:03:41;4.03;;;1.10;;
21591;SDS011;10958;50.892;3.992;2023-01-15T11:06:15;6.68;;;2.03;;
21591;SDS011;10958;50.892;3.992;2023-01-15T11:08:51;4.30;;;1.20;;
21591;SDS011;10958;50.892;3.992;2023-01-15T11:11:22;7.45;;;0.98;;
21591;SDS011;10958;50.892;3.992;2023-01-15T11:14:30;5.40;;;1.13;;
21591;SDS011;10958;50.892;3.992;2023-01-15T11:17:15;4.78;;;1.48;;
21591;SDS011;10958;50.892;3.992;2023-01-15T11:19:59;7.55;;;1.52;;
21591;SDS011;10958;50.892;3.992;2023-01-15T11:22:28;7.70;;;1.38;;
21591;SDS011;10958;50.892;3.992;2023-01-15T11:24:58;6.60;;;1.10;;
21591;SDS011;10958;50.892;3.992;2023-01-15T11:27:26;4.13;;;1.13;;
21591;SDS011;10958;50.892;3.992;2023-01-15T11:29:56;5.88;;;1.45;;
21591;SDS011;10958;50.892;3.992;2023-01-15T11:35:17;3.55;;;0.80;;
21591;SDS011;10958;50.892;3.992;2023-01-15T11:37:46;6.82;;;1.38;;
21591;SDS011;10958;50.892;3.992;2023-01-15T11:40:16;6.57;;;0.90;;
21591;SDS011;10958;50.892;3.992;2023-01-15T11:42:48;3.28;;;1.50;;
21591;SDS011;10958;50.892;3.992;2023-01-15T11:45:44;5.93;;;1.13;;
21591;SDS011;10958;50.892;3.992;2023-01-15T11:48:33;6.45;;;0.93;;
21591;SDS011;10958;50.892;3.992;2023-01-15T11:51:28;7.28;;;1.40;;
21591;SDS011;10958;50.892;3.992;2023-01-15T11:53:58;3.90;;;0.93;;
21591;SDS011;10958;50.892;3.992;2023-01-15T11:56:29;6.60;;;1.17;;
21591;SDS011;10958;50.892;3.992;2023-01-15T11:59:03;4.25;;;1.08;;
21591;SDS011;10958;50.892;3.992;2023-01-15T12:01:36;4.93;;;1.20;;
21591;SDS011;10958;50.892;3.992;2023-01-15T12:04:21;4.57;;;0.90;;
21591;SDS011;10958;50.892;3.992;2023-01-15T12:06:48;6.05;;;1.10;;
21591;SDS011;10958;50.892;3.992;2023-01-15T12:41:21;4.07;;;0.90;;
21591;SDS011;10958;50.892;3.992;2023-01-15T12:43:53;5.82;;;1.48;;
21591;SDS011;10958;50.892;3.992;2023-01-15T12:46:41;3.00;;;1.20;;
21591;SDS011;10958;50.892;3.992;2023-01-15T12:54:27;4.43;;;1.00;;
21591;SDS011;10958;50.892;3.992;2023-01-15T13:00:17;4.72;;;1.20;;
21591;SDS011;10958;50.892;3.992;2023-01-15T13:05:45;6.15;;;1.00;;
21591;SDS011;10958;50.892;3.992;2023-01-15T13:10:57;3.17;;;1.20;;
21591;SDS011;10958;50.892;3.992;2023-01-15T13:13:25;4.82;;;1.00;;
21591;SDS011;10958;50.892;3.992;2023-01-15T13:18:32;5.00;;;1.38;;
21591;SDS011;10958;50.892;3.992;2023-01-15T13:21:21;5.95;;;1.65;;
21591;SDS011;10958;50.892;3.992;2023-01-15T13:32:02;4.57;;;0.63;;
21591;SDS011;10958;50.892;3.992;2023-01-15T13:34:41;1.67;;;0.80;;
21591;SDS011;10958;50.892;3.992;2023-01-15T13:37:28;3.15;;;1.00;;
21591;SDS011;10958;50.892;3.992;2023-01-15T13:40:00;3.30;;;0.88;;
21591;SDS011;10958;50.892;3.992;2023-01-15T13:42:35;8.55;;;1.27;;
21591;SDS011;10958;50.892;3.992;2023-01-15T13:45:50;3.03;;;0.75;;
21591;SDS011;10958;50.892;3.992;2023-01-15T13:50:50;3.85;;;1.05;;
21591;SDS011;10958;50.892;3.992;2023-01-15T13:55:51;6.07;;;1.10;;
21591;SDS011;10958;50.892;3.992;2023-01-15T13:58:27;3.70;;;1.08;;
21591;SDS011;10958;50.892;3.992;2023-01-15T14:01:02;4.57;;;0.93;;
21591;SDS011;10958;50.892;3.992;2023-01-15T14:03:35;3.55;;;0.82;;
21591;SDS011;10958;50.892;3.992;2023-01-15T14:06:06;2.17;;;0.93;;
21591;SDS011;10958;50.892;3.992;2023-01-15T14:08:40;3.28;;;0.95;;
21591;SDS011;10958;50.892;3.992;2023-01-15T14:14:12;5.43;;;1.40;;
21591;SDS011;10958;50.892;3.992;2023-01-15T14:25:22;6.05;;;1.08;;
21591;SDS011;10958;50.892;3.992;2023-01-15T14:27:55;3.80;;;1.40;;
21591;SDS011;10958;50.892;3.992;2023-01-15T14:36:22;4.15;;;1.00;;
21591;SDS011;10958;50.892;3.992;2023-01-15T14:39:00;3.67;;;1.13;;
21591;SDS011;10958;50.892;3.992;2023-01-15T14:41:28;4.22;;;1.23;;
21591;SDS011;10958;50.892;3.992;2023-01-15T14:43:56;4.20;;;0.90;;
21591;SDS011;10958;50.892;3.992;2023-01-15T14:46:28;3.33;;;1.02;;
21591;SDS011;10958;50.892;3.992;2023-01-15T14:49:01;7.32;;;0.70;;
21591;SDS011;10958;50.892;3.992;2023-01-15T14:51:29;1.58;;;0.70;;
21591;SDS011;10958;50.892;3.992;2023-01-15T14:53:58;4.47;;;0.98;;
21591;SDS011;10958;50.892;3.992;2023-01-15T14:56:49;2.63;;;0.80;;
21591;SDS011;10958;50.892;3.992;2023-01-15T15:04:39;4.97;;;0.98;;
21591;SDS011;10958;50.892;3.992;2023-01-15T15:07:12;3.97;;;0.80;;
21591;SDS011;10958;50.892;3.992;2023-01-15T15:20:23;3.08;;;0.90;;
21591;SDS011;10958;50.892;3.992;2023-01-15T15:23:08;2.30;;;1.13;;
21591;SDS011;10958;50.892;3.992;2023-01-15T15:26:00;3.70;;;0.95;;
21591;SDS011;10958;50.892;3.992;2023-01-15T15:28:30;3.72;;;0.95;;
21591;SDS011;10958;50.892;3.992;2023-01-15T15:30:56;5.10;;;1.55;;
21591;SDS011;10958;50.892;3.992;2023-01-15T15:33:37;5.72;;;1.40;;
21591;SDS011;10958;50.892;3.992;2023-01-15T15:36:04;3.10;;;0.85;;
21591;SDS011;10958;50.892;3.992;2023-01-15T15:38:36;2.67;;;0.80;;
21591;SDS011;10958;50.892;3.992;2023-01-15T15:41:06;2.60;;;1.25;;
21591;SDS011;10958;50.892;3.992;2023-01-15T15:46:32;1.67;;;0.90;;
21591;SDS011;10958;50.892;3.992;2023-01-15T15:49:19;5.40;;;1.80;;
21591;SDS011;10958;50.892;3.992;2023-01-15T15:57:01;5.13;;;1.17;;
21591;SDS011;10958;50.892;3.992;2023-01-15T16:02:23;3.63;;;1.25;;
21591;SDS011;10958;50.892;3.992;2023-01-15T16:04:53;2.03;;;0.80;;
21591;SDS011;10958;50.892;3.992;2023-01-15T16:07:28;4.75;;;1.20;;
21591;SDS011;10958;50.892;3.992;2023-01-15T16:10:40;6.00;;;1.35;;
21591;SDS011;10958;50.892;3.992;2023-01-15T16:12:52;3.65;;;1.27;;
21591;SDS011;10958;50.892;3.992;2023-01-15T16:15:27;1.45;;;0.90;;
21591;SDS011;10958;50.892;3.992;2023-01-15T16:17:56;4.60;;;1.58;;
21591;SDS011;10958;50.892;3.992;2023-01-15T16:20:23;3.83;;;1.55;;
21591;SDS011;10958;50.892;3.992;2023-01-15T16:23:02;4.25;;;1.02;;
21591;SDS011;10958;50.892;3.992;2023-01-15T16:25:36;4.18;;;1.40;;
21591;SDS011;10958;50.892;3.992;2023-01-15T16:28:05;2.60;;;1.15;;
21591;SDS011;10958;50.892;3.992;2023-01-15T16:30:42;5.30;;;1.25;;
21591;SDS011;10958;50.892;3.992;2023-01-15T16:33:08;7.40;;;1.20;;
21591;SDS011;10958;50.892;3.992;2023-01-15T16:35:40;2.50;;;0.82;;
21591;SDS011;10958;50.892;3.992;2023-01-15T16:38:13;4.72;;;1.00;;
21591;SDS011;10958;50.892;3.992;2023-01-15T16:40:44;1.33;;;1.00;;
21591;SDS011;10958;50.892;3.992;2023-01-15T16:43:12;3.40;;;0.85;;
21591;SDS011;10958;50.892;3.992;2023-01-15T16:48:37;4.97;;;1.48;;
21591;SDS011;10958;50.892;3.992;2023-01-15T16:51:23;4.72;;;1.15;;
21591;SDS011;10958;50.892;3.992;2023-01-15T16:53:53;4.18;;;1.58;;
21591;SDS011;10958;50.892;3.992;2023-01-15T16:57:02;2.55;;;1.30;;
21591;SDS011;10958;50.892;3.992;2023-01-15T17:01:43;3.22;;;2.03;;
21591;SDS011;10958;50.892;3.992;2023-01-15T17:09:57;6.10;;;1.60;;
21591;SDS011;10958;50.892;3.992;2023-01-15T17:17:39;5.53;;;2.20;;
21591;SDS011;10958;50.892;3.992;2023-01-15T17:20:10;2.67;;;1.20;;
21591;SDS011;10958;50.892;3.992;2023-01-15T17:22:39;3.53;;;1.77;;
21591;SDS011;10958;50.892;3.992;2023-01-15T17:25:23;6.32;;;2.85;;
21591;SDS011;10958;50.892;3.992;2023-01-15T17:27:55;4.95;;;2.83;;
21591;SDS011;10958;50.892;3.992;2023-01-15T17:30:24;5.97;;;3.50;;
21591;SDS011;10958;50.892;3.992;2023-01-15T17:32:55;6.65;;;3.35;;
21591;SDS011;10958;50.892;3.992;2023-01-15T17:35:25;4.32;;;2.10;;
21591;SDS011;10958;50.892;3.992;2023-01-15T17:38:00;6.80;;;2.53;;
21591;SDS011;10958;50.892;3.992;2023-01-15T17:40:28;7.82;;;2.85;;
21591;SDS011;10958;50.892;3.992;2023-01-15T17:42:54;5.65;;;2.85;;
21591;SDS011;10958;50.892;3.992;2023-01-15T17:45:24;7.43;;;3.03;;
21591;SDS011;10958;50.892;3.992;2023-01-15T17:47:52;4.93;;;2.50;;
21591;SDS011;10958;50.892;3.992;2023-01-15T17:50:18;9.13;;;3.00;;
21591;SDS011;10958;50.892;3.992;2023-01-15T17:52:44;7.97;;;3.30;;
21591;SDS011;10958;50.892;3.992;2023-01-15T17:55:12;11.10;;;3.20;;
21591;SDS011;10958;50.892;3.992;2023-01-15T17:57:58;9.55;;;2.72;;
21591;SDS011;10958;50.892;3.992;2023-01-15T18:00:42;7.57;;;3.80;;
21591;SDS011;10958;50.892;3.992;2023-01-15T18:03:26;5.93;;;1.77;;
21591;SDS011;10958;50.892;3.992;2023-01-15T18:06:11;11.07;;;2.40;;
21591;SDS011;10958;50.892;3.992;2023-01-15T18:08:39;3.92;;;1.58;;
21591;SDS011;10958;50.892;3.992;2023-01-15T18:11:08;7.93;;;1.92;;
21591;SDS011;10958;50.892;3.992;2023-01-15T18:13:36;7.47;;;1.67;;
21591;SDS011;10958;50.892;3.992;2023-01-15T18:16:05;7.78;;;1.80;;
21591;SDS011;10958;50.892;3.992;2023-01-15T18:18:31;9.50;;;2.05;;
21591;SDS011;10958;50.892;3.992;2023-01-15T18:20:58;4.57;;;1.30;;
21591;SDS011;10958;50.892;3.992;2023-01-15T18:23:25;7.20;;;1.50;;
21591;SDS011;10958;50.892;3.992;2023-01-15T18:25:54;7.50;;;1.77;;
21591;SDS011;10958;50.892;3.992;2023-01-15T18:28:20;6.93;;;1.60;;